sensor_id;sensor_type;location;lat;lon;timestamp;temperature;humidity
16674;DHT22;8450;52.654;10.326;2022-09-13T05:42:46;14.90;99.90
16674;DHT22;8450;52.654;10.326;2022-09-13T05:45:12;14.90;99.90
16674;DHT22;8450;52.654;10.326;2022-09-13T05:47:38;14.90;99.90
16674;DHT22;8450;52.654;10.326;2022-09-13T05:50:04;15.00;99.90
16674;DHT22;8450;52.654;10.326;2022-09-13T05:52:29;15.00;99.90
16674;DHT22;8450;52.654;10.326;2022-09-13T05:54:55;15.00;99.90
16674;DHT22;8450;52.654;10.326;2022-09-13T05:57:20;15.00;99.90
16674;DHT22;8450;52.654;10.326;2022-09-13T06:03:33;15.10;99.90
16674;DHT22;8450;52.654;10.326;2022-09-13T06:05:58;15.10;99.90
16674;DHT22;8450;52.654;10.326;2022-09-13T06:08:25;15.10;99.90
16674;DHT22;8450;52.654;10.326;2022-09-13T06:10:59;15.20;99.90
16674;DHT22;8450;52.654;10.326;2022-09-13T06:13:26;15.20;99.90
16674;DHT22;8450;52.654;10.326;2022-09-13T06:15:53;15.20;99.90
16674;DHT22;8450;52.654;10.326;2022-09-13T06:18:18;15.30;99.90
16674;DHT22;8450;52.654;10.326;2022-09-13T06:20:45;15.30;99.90
16674;DHT22;8450;52.654;10.326;2022-09-13T06:23:11;15.30;99.90
16674;DHT22;8450;52.654;10.326;2022-09-13T06:25:36;15.30;99.90
16674;DHT22;8450;52.654;10.326;2022-09-13T06:28:02;15.40;99.90
16674;DHT22;8450;52.654;10.326;2022-09-13T06:30:28;15.30;99.90
16674;DHT22;8450;52.654;10.326;2022-09-13T06:32:55;15.40;99.90
16674;DHT22;8450;52.654;10.326;2022-09-13T06:35:21;15.40;99.90
16674;DHT22;8450;52.654;10.326;2022-09-13T06:37:46;15.40;99.90
16674;DHT22;8450;52.654;10.326;2022-09-13T06:40:12;15.40;99.90
16674;DHT22;8450;52.654;10.326;2022-09-13T06:42:38;15.40;99.90
16674;DHT22;8450;52.654;10.326;2022-09-13T06:45:04;15.50;99.90
16674;DHT22;8450;52.654;10.326;2022-09-13T06:47:30;15.50;99.90
16674;DHT22;8450;52.654;10.326;2022-09-13T06:49:55;15.50;99.90
16674;DHT22;8450;52.654;10.326;2022-09-13T06:52:22;15.60;99.90
16674;DHT22;8450;52.654;10.326;2022-09-13T06:54:47;15.60;99.90
16674;DHT22;8450;52.654;10.326;2022-09-13T06:57:13;15.60;99.90
16674;DHT22;8450;52.654;10.326;2022-09-13T06:59:39;15.70;99.90
16674;DHT22;8450;52.654;10.326;2022-09-13T07:02:04;15.70;99.90
16674;DHT22;8450;52.654;10.326;2022-09-13T07:04:30;15.70;99.90
16674;DHT22;8450;52.654;10.326;2022-09-13T07:06:57;15.80;99.90
16674;DHT22;8450;52.654;10.326;2022-09-13T07:09:23;15.90;99.90
16674;DHT22;8450;52.654;10.326;2022-09-13T07:11:50;15.90;99.90
16674;DHT22;8450;52.654;10.326;2022-09-13T07:14:18;15.90;99.90
16674;DHT22;8450;52.654;10.326;2022-09-13T07:16:44;16.00;99.90
16674;DHT22;8450;52.654;10.326;2022-09-13T07:19:18;16.00;99.90
16674;DHT22;8450;52.654;10.326;2022-09-13T07:21:45;16.00;99.90
16674;DHT22;8450;52.654;10.326;2022-09-13T07:24:11;16.00;99.90
16674;DHT22;8450;52.654;10.326;2022-09-13T07:26:37;16.10;99.90
16674;DHT22;8450;52.654;10.326;2022-09-13T07:29:07;16.10;99.90
16674;DHT22;8450;52.654;10.326;2022-09-13T07:31:35;16.20;99.90
16674;DHT22;8450;52.654;10.326;2022-09-13T07:34:06;16.20;99.90
16674;DHT22;8450;52.654;10.326;2022-09-13T07:36:34;16.30;99.90
16674;DHT22;8450;52.654;10.326;2022-09-13T07:39:00;16.30;99.90
16674;DHT22;8450;52.654;10.326;2022-09-13T07:41:27;16.30;99.90
16674;DHT22;8450;52.654;10.326;2022-09-13T07:43:53;16.30;99.90
16674;DHT22;8450;52.654;10.326;2022-09-13T07:46:21;16.40;99.90
16674;DHT22;8450;52.654;10.326;2022-09-13T07:48:48;16.40;99.90
16674;DHT22;8450;52.654;10.326;2022-09-13T07:51:18;16.40;99.90
16674;DHT22;8450;52.654;10.326;2022-09-13T07:53:49;16.40;99.90
16674;DHT22;8450;52.654;10.326;2022-09-13T07:56:20;16.40;99.90
16674;DHT22;8450;52.654;10.326;2022-09-13T07:58:49;16.40;99.90
16674;DHT22;8450;52.654;10.326;2022-09-13T08:03:42;16.40;99.90
16674;DHT22;8450;52.654;10.326;2022-09-13T08:06:07;16.40;99.90
16674;DHT22;8450;52.654;10.326;2022-09-13T08:08:34;16.50;99.90
16674;DHT22;8450;52.654;10.326;2022-09-13T08:11:01;16.50;99.90
16674;DHT22;8450;52.654;10.326;2022-09-13T08:13:27;16.50;99.90
16674;DHT22;8450;52.654;10.326;2022-09-13T08:16:04;16.50;99.90
16674;DHT22;8450;52.654;10.326;2022-09-13T08:18:30;16.50;99.90
16674;DHT22;8450;52.654;10.326;2022-09-13T08:20:57;16.50;99.90
16674;DHT22;8450;52.654;10.326;2022-09-13T08:23:23;16.50;99.90
16674;DHT22;8450;52.654;10.326;2022-09-13T08:25:49;16.50;99.90
16674;DHT22;8450;52.654;10.326;2022-09-13T08:28:17;16.50;99.90
16674;DHT22;8450;52.654;10.326;2022-09-13T08:30:43;16.50;99.90
16674;DHT22;8450;52.654;10.326;2022-09-13T08:33:10;16.50;99.90
16674;DHT22;8450;52.654;10.326;2022-09-13T08:35:36;16.60;99.90
16674;DHT22;8450;52.654;10.326;2022-09-13T08:38:02;16.60;99.90
16674;DHT22;8450;52.654;10.326;2022-09-13T08:40:31;16.60;99.90
16674;DHT22;8450;52.654;10.326;2022-09-13T08:43:04;16.60;99.90
16674;DHT22;8450;52.654;10.326;2022-09-13T08:45:31;16.70;99.90
16674;DHT22;8450;52.654;10.326;2022-09-13T08:48:15;16.70;99.90
16674;DHT22;8450;52.654;10.326;2022-09-13T08:50:43;16.70;99.90
16674;DHT22;8450;52.654;10.326;2022-09-13T08:53:25;16.70;99.90
16674;DHT22;8450;52.654;10.326;2022-09-13T08:56:08;16.70;99.90
16674;DHT22;8450;52.654;10.326;2022-09-13T08:58:48;16.70;99.90
16674;DHT22;8450;52.654;10.326;2022-09-13T09:01:58;16.70;99.90
16674;DHT22;8450;52.654;10.326;2022-09-13T09:07:04;16.80;99.90
16674;DHT22;8450;52.654;10.326;2022-09-13T09:09:34;16.90;99.90
16674;DHT22;8450;52.654;10.326;2022-09-13T09:12:16;16.80;99.90
16674;DHT22;8450;52.654;10.326;2022-09-13T09:14:49;16.90;99.90
16674;DHT22;8450;52.654;10.326;2022-09-13T09:17:25;16.90;99.90
16674;DHT22;8450;52.654;10.326;2022-09-13T09:20:03;17.00;99.90
16674;DHT22;8450;52.654;10.326;2022-09-13T09:22:33;17.00;99.90
16674;DHT22;8450;52.654;10.326;2022-09-13T09:25:00;17.00;99.90
16674;DHT22;8450;52.654;10.326;2022-09-13T09:27:28;17.00;99.90
16674;DHT22;8450;52.654;10.326;2022-09-13T09:29:55;17.00;99.90
16674;DHT22;8450;52.654;10.326;2022-09-13T09:38:31;17.10;99.90
16674;DHT22;8450;52.654;10.326;2022-09-13T09:41:04;17.10;99.90
16674;DHT22;8450;52.654;10.326;2022-09-13T09:46:23;17.20;99.90
16674;DHT22;8450;52.654;10.326;2022-09-13T09:48:54;17.20;99.90
16674;DHT22;8450;52.654;10.326;2022-09-13T09:51:22;17.20;99.90
16674;DHT22;8450;52.654;10.326;2022-09-13T09:53:53;17.20;99.90
16674;DHT22;8450;52.654;10.326;2022-09-13T09:56:32;17.20;99.90
16674;DHT22;8450;52.654;10.326;2022-09-13T09:58:58;17.20;99.90
16674;DHT22;8450;52.654;10.326;2022-09-13T10:01:36;17.30;99.90
16674;DHT22;8450;52.654;10.326;2022-09-13T10:04:17;17.30;99.90
16674;DHT22;8450;52.654;10.326;2022-09-13T10:06:43;17.30;99.90
16674;DHT22;8450;52.654;10.326;2022-09-13T10:09:19;17.30;99.90
16674;DHT22;8450;52.654;10.326;2022-09-13T10:11:50;17.30;99.90
16674;DHT22;8450;52.654;10.326;2022-09-13T10:17:25;17.40;99.90
16674;DHT22;8450;52.654;10.326;2022-09-13T10:20:01;17.50;99.90
16674;DHT22;8450;52.654;10.326;2022-09-13T10:22:30;17.50;99.90
16674;DHT22;8450;52.654;10.326;2022-09-13T10:25:25;17.60;99.90
16674;DHT22;8450;52.654;10.326;2022-09-13T10:27:54;17.60;99.90
16674;DHT22;8450;52.654;10.326;2022-09-13T10:30:47;17.70;99.90
16674;DHT22;8450;52.654;10.326;2022-09-13T10:33:43;17.70;99.90
16674;DHT22;8450;52.654;10.326;2022-09-13T10:36:18;17.80;99.90
16674;DHT22;8450;52.654;10.326;2022-09-13T10:39:05;17.90;99.90
16674;DHT22;8450;52.654;10.326;2022-09-13T10:41:38;18.00;99.90
16674;DHT22;8450;52.654;10.326;2022-09-13T10:44:26;18.10;99.90
16674;DHT22;8450;52.654;10.326;2022-09-13T10:46:53;18.10;99.90
16674;DHT22;8450;52.654;10.326;2022-09-13T10:49:40;18.20;99.90
16674;DHT22;8450;52.654;10.326;2022-09-13T10:52:32;18.30;99.90
16674;DHT22;8450;52.654;10.326;2022-09-13T10:55:27;18.30;99.90
16674;DHT22;8450;52.654;10.326;2022-09-13T10:58:10;18.40;99.90
16674;DHT22;8450;52.654;10.326;2022-09-13T11:01:06;18.40;99.90
16674;DHT22;8450;52.654;10.326;2022-09-13T11:04:21;18.40;99.90
16674;DHT22;8450;52.654;10.326;2022-09-13T11:07:06;18.50;99.90
16674;DHT22;8450;52.654;10.326;2022-09-13T11:09:52;18.50;99.90
16674;DHT22;8450;52.654;10.326;2022-09-13T11:12:29;18.60;99.90
16674;DHT22;8450;52.654;10.326;2022-09-13T11:15:21;18.60;99.90
16674;DHT22;8450;52.654;10.326;2022-09-13T11:18:15;18.70;99.90
16674;DHT22;8450;52.654;10.326;2022-09-13T11:21:18;18.70;99.90
16674;DHT22;8450;52.654;10.326;2022-09-13T11:26:43;18.80;99.90
16674;DHT22;8450;52.654;10.326;2022-09-13T11:29:52;18.80;99.90
16674;DHT22;8450;52.654;10.326;2022-09-13T11:40:59;18.90;99.90
16674;DHT22;8450;52.654;10.326;2022-09-13T11:43:51;18.90;99.90
16674;DHT22;8450;52.654;10.326;2022-09-13T11:54:30;19.00;99.90
16674;DHT22;8450;52.654;10.326;2022-09-13T11:57:05;19.00;99.90
16674;DHT22;8450;52.654;10.326;2022-09-13T11:59:37;19.00;99.90
16674;DHT22;8450;52.654;10.326;2022-09-13T12:02:18;19.10;99.90
16674;DHT22;8450;52.654;10.326;2022-09-13T12:05:02;19.10;99.90
16674;DHT22;8450;52.654;10.326;2022-09-13T12:07:37;19.10;99.90
16674;DHT22;8450;52.654;10.326;2022-09-13T12:13:15;19.20;99.90
16674;DHT22;8450;52.654;10.326;2022-09-13T12:15:43;19.20;99.90
16674;DHT22;8450;52.654;10.326;2022-09-13T12:18:15;19.20;99.90
16674;DHT22;8450;52.654;10.326;2022-09-13T12:20:48;19.20;99.90
16674;DHT22;8450;52.654;10.326;2022-09-13T12:23:22;19.30;99.90
16674;DHT22;8450;52.654;10.326;2022-09-13T12:25:56;19.30;99.90
16674;DHT22;8450;52.654;10.326;2022-09-13T12:28:39;19.40;99.90
16674;DHT22;8450;52.654;10.326;2022-09-13T12:31:11;19.50;99.90
16674;DHT22;8450;52.654;10.326;2022-09-13T12:33:41;19.60;99.90
16674;DHT22;8450;52.654;10.326;2022-09-13T12:39:29;19.70;99.90
16674;DHT22;8450;52.654;10.326;2022-09-13T12:42:26;19.70;99.90
16674;DHT22;8450;52.654;10.326;2022-09-13T12:54:11;19.70;99.90
16674;DHT22;8450;52.654;10.326;2022-09-13T13:01:49;19.70;99.90
16674;DHT22;8450;52.654;10.326;2022-09-13T13:04:28;19.90;99.90
16674;DHT22;8450;52.654;10.326;2022-09-13T13:07:01;19.90;99.90
16674;DHT22;8450;52.654;10.326;2022-09-13T13:09:43;20.10;99.90
16674;DHT22;8450;52.654;10.326;2022-09-13T13:12:24;20.20;99.90
16674;DHT22;8450;52.654;10.326;2022-09-13T13:14:50;20.30;99.90
16674;DHT22;8450;52.654;10.326;2022-09-13T13:33:58;21.20;99.90
16674;DHT22;8450;52.654;10.326;2022-09-13T13:36:43;21.20;99.90
16674;DHT22;8450;52.654;10.326;2022-09-13T13:57:39;21.20;99.90
16674;DHT22;8450;52.654;10.326;2022-09-13T14:00:16;21.20;99.90
16674;DHT22;8450;52.654;10.326;2022-09-13T14:08:13;21.50;99.90
16674;DHT22;8450;52.654;10.326;2022-09-13T14:14:12;21.50;99.90
16674;DHT22;8450;52.654;10.326;2022-09-13T14:19:40;21.40;99.90
16674;DHT22;8450;52.654;10.326;2022-09-13T14:22:26;21.40;99.90
16674;DHT22;8450;52.654;10.326;2022-09-13T14:24:57;21.50;99.90
16674;DHT22;8450;52.654;10.326;2022-09-13T14:27:26;21.40;99.90
16674;DHT22;8450;52.654;10.326;2022-09-13T14:29:55;21.40;99.90
16674;DHT22;8450;52.654;10.326;2022-09-13T14:32:27;21.40;99.90
16674;DHT22;8450;52.654;10.326;2022-09-13T14:37:24;21.30;99.90
16674;DHT22;8450;52.654;10.326;2022-09-13T14:40:01;21.30;99.90
16674;DHT22;8450;52.654;10.326;2022-09-13T14:42:40;21.40;99.90
16674;DHT22;8450;52.654;10.326;2022-09-13T14:45:12;21.30;99.90
16674;DHT22;8450;52.654;10.326;2022-09-13T14:48:07;21.30;99.90
16674;DHT22;8450;52.654;10.326;2022-09-13T14:50:39;21.40;99.90
16674;DHT22;8450;52.654;10.326;2022-09-13T14:53:13;21.40;99.90
16674;DHT22;8450;52.654;10.326;2022-09-13T14:55:42;21.40;99.90
16674;DHT22;8450;52.654;10.326;2022-09-13T14:58:16;21.40;99.90
16674;DHT22;8450;52.654;10.326;2022-09-13T15:01:05;21.30;99.90
16674;DHT22;8450;52.654;10.326;2022-09-13T15:03:31;21.30;99.90
16674;DHT22;8450;52.654;10.326;2022-09-13T15:05:59;21.30;99.90
16674;DHT22;8450;52.654;10.326;2022-09-13T15:10:57;21.30;99.90
16674;DHT22;8450;52.654;10.326;2022-09-13T15:13:23;21.30;99.90
16674;DHT22;8450;52.654;10.326;2022-09-13T15:15:49;21.30;99.90
16674;DHT22;8450;52.654;10.326;2022-09-13T15:26:12;21.30;99.90
16674;DHT22;8450;52.654;10.326;2022-09-13T15:31:10;21.30;99.90
16674;DHT22;8450;52.654;10.326;2022-09-13T15:33:36;21.20;99.90
16674;DHT22;8450;52.654;10.326;2022-09-13T15:39:09;21.20;99.90
16674;DHT22;8450;52.654;10.326;2022-09-13T15:41:53;21.20;99.90
16674;DHT22;8450;52.654;10.326;2022-09-13T15:44:20;21.20;99.90
16674;DHT22;8450;52.654;10.326;2022-09-13T15:46:48;21.20;99.90
16674;DHT22;8450;52.654;10.326;2022-09-13T15:49:18;21.10;99.90
16674;DHT22;8450;52.654;10.326;2022-09-13T15:51:45;21.10;99.90
16674;DHT22;8450;52.654;10.326;2022-09-13T15:54:13;21.00;99.90
16674;DHT22;8450;52.654;10.326;2022-09-13T15:56:42;21.00;99.90
16674;DHT22;8450;52.654;10.326;2022-09-13T15:59:12;21.00;99.90
16674;DHT22;8450;52.654;10.326;2022-09-13T16:01:38;21.00;99.90
16674;DHT22;8450;52.654;10.326;2022-09-13T16:04:04;21.00;99.90
16674;DHT22;8450;52.654;10.326;2022-09-13T16:06:30;20.90;99.90
16674;DHT22;8450;52.654;10.326;2022-09-13T16:08:56;20.80;99.90
16674;DHT22;8450;52.654;10.326;2022-09-13T16:11:23;20.80;99.90
16674;DHT22;8450;52.654;10.326;2022-09-13T16:13:48;20.70;99.90
16674;DHT22;8450;52.654;10.326;2022-09-13T16:16:14;20.70;99.90
16674;DHT22;8450;52.654;10.326;2022-09-13T16:18:39;20.60;99.90
16674;DHT22;8450;52.654;10.326;2022-09-13T16:21:05;20.60;99.90
16674;DHT22;8450;52.654;10.326;2022-09-13T16:23:30;20.50;99.90
16674;DHT22;8450;52.654;10.326;2022-09-13T16:25:57;20.50;99.90
16674;DHT22;8450;52.654;10.326;2022-09-13T16:28:24;20.40;99.90
16674;DHT22;8450;52.654;10.326;2022-09-13T16:30:50;20.40;99.90
16674;DHT22;8450;52.654;10.326;2022-09-13T16:33:16;20.30;99.90
16674;DHT22;8450;52.654;10.326;2022-09-13T16:35:42;20.20;99.90
16674;DHT22;8450;52.654;10.326;2022-09-13T16:38:09;20.20;99.90
16674;DHT22;8450;52.654;10.326;2022-09-13T16:40:36;20.10;99.90
16674;DHT22;8450;52.654;10.326;2022-09-13T16:43:02;20.00;99.90
16674;DHT22;8450;52.654;10.326;2022-09-13T16:45:28;20.00;99.90
16674;DHT22;8450;52.654;10.326;2022-09-13T16:47:53;19.90;99.90
16674;DHT22;8450;52.654;10.326;2022-09-13T16:50:19;19.90;99.90
16674;DHT22;8450;52.654;10.326;2022-09-13T16:52:45;19.80;99.90
16674;DHT22;8450;52.654;10.326;2022-09-13T16:55:11;19.70;99.90
